createdAt,value
2023-04-08T00:00:02.305Z,959.3900
2023-04-08T00:00:13.490Z,959.3900
2023-04-08T00:00:24.682Z,959.3900
2023-04-08T00:00:35.882Z,959.3900
2023-04-08T00:00:47.088Z,959.4100
2023-04-08T00:00:58.279Z,959.4100
2023-04-08T00:01:09.494Z,959.4100
2023-04-08T00:01:20.684Z,959.4100
2023-04-08T00:01:31.920Z,959.4100
2023-04-08T00:01:43.214Z,959.3900
2023-04-08T00:01:54.375Z,959.3900
2023-04-08T00:02:05.502Z,959.4100
2023-04-08T00:02:16.834Z,959.4100
2023-04-08T00:02:28.078Z,959.4100
2023-04-08T00:02:39.618Z,959.4100
2023-04-08T00:02:50.996Z,959.4200
2023-04-08T00:03:02.137Z,959.4200
2023-04-08T00:03:13.442Z,959.4200
2023-04-08T00:03:24.669Z,959.4200
2023-04-08T00:03:35.887Z,959.4200
2023-04-08T00:03:47.281Z,959.4200
2023-04-08T00:03:58.578Z,959.4400
2023-04-08T00:04:10.008Z,959.4400
2023-04-08T00:04:21.354Z,959.4400
2023-04-08T00:04:32.529Z,959.4400
2023-04-08T00:04:43.655Z,959.4400
2023-04-08T00:04:54.874Z,959.4400
2023-04-08T00:05:05.980Z,959.4400
2023-04-08T00:05:17.159Z,959.4400
2023-04-08T00:05:28.348Z,959.4400
2023-04-08T00:05:39.578Z,959.4400
2023-04-08T00:05:50.768Z,959.4200
2023-04-08T00:06:01.844Z,959.4200
2023-04-08T00:06:12.919Z,959.4400
2023-04-08T00:06:24.038Z,959.4400
2023-04-08T00:06:35.238Z,959.4400
2023-04-08T00:06:46.429Z,959.4400
2023-04-08T00:06:57.674Z,959.4400
2023-04-08T00:07:08.824Z,959.4400
2023-04-08T00:07:20.027Z,959.4400
2023-04-08T00:07:31.238Z,959.4400
2023-04-08T00:07:42.444Z,959.4400
2023-04-08T00:07:53.642Z,959.4400
2023-04-08T00:08:04.834Z,959.4200
2023-04-08T00:08:16.067Z,959.4400
2023-04-08T00:08:27.235Z,959.4400
2023-04-08T00:08:38.268Z,959.4400
2023-04-08T00:08:49.761Z,959.4400
2023-04-08T00:09:01.173Z,959.4400
2023-04-08T00:09:12.362Z,959.4400
2023-04-08T00:09:23.558Z,959.4600
2023-04-08T00:09:34.764Z,959.4400
2023-04-08T00:09:45.957Z,959.4400
2023-04-08T00:09:57.153Z,959.4400
2023-04-08T00:10:08.383Z,959.4600
2023-04-08T00:10:19.572Z,959.4400
2023-04-08T00:10:30.753Z,959.4600
2023-04-08T00:10:41.958Z,959.4400
2023-04-08T00:10:53.157Z,959.4400
2023-04-08T00:11:04.372Z,959.4200
2023-04-08T00:11:15.553Z,959.4400
2023-04-08T00:11:26.759Z,959.4200
2023-04-08T00:11:37.832Z,959.4200
2023-04-08T00:11:48.848Z,959.4200
2023-04-08T00:11:59.976Z,959.4400
2023-04-08T00:12:11.004Z,959.4200
2023-04-08T00:12:22.110Z,959.4200
2023-04-08T00:12:33.141Z,959.4200
2023-04-08T00:12:44.201Z,959.4100
2023-04-08T00:12:55.387Z,959.4100
2023-04-08T00:13:06.438Z,959.4100
2023-04-08T00:13:17.474Z,959.4100
2023-04-08T00:13:28.671Z,959.4100
2023-04-08T00:13:39.890Z,959.4100
2023-04-08T00:13:51.092Z,959.4100
2023-04-08T00:14:02.278Z,959.4100
2023-04-08T00:14:13.313Z,959.4100
2023-04-08T00:14:24.354Z,959.4100
2023-04-08T00:14:35.553Z,959.4100
2023-04-08T00:14:46.782Z,959.3900
2023-04-08T00:14:57.954Z,959.3900
2023-04-08T00:15:09.022Z,959.3900
2023-04-08T00:15:20.082Z,959.3900
2023-04-08T00:15:31.237Z,959.3900
2023-04-08T00:15:42.431Z,959.3900
2023-04-08T00:15:53.646Z,959.3900
2023-04-08T00:16:04.843Z,959.3900
2023-04-08T00:16:16.166Z,959.3900
2023-04-08T00:16:27.277Z,959.3900
2023-04-08T00:16:38.475Z,959.3300
2023-04-08T00:16:49.686Z,959.3900
2023-04-08T00:17:00.915Z,959.3300
2023-04-08T00:17:12.081Z,959.3300
2023-04-08T00:17:23.138Z,959.3300
2023-04-08T00:17:34.260Z,959.3900
2023-04-08T00:17:45.343Z,959.3900
2023-04-08T00:17:56.624Z,959.3900
2023-04-08T00:18:07.854Z,959.4100
2023-04-08T00:18:18.918Z,959.3900
2023-04-08T00:18:30.123Z,959.3900
2023-04-08T00:18:41.324Z,959.3900
2023-04-08T00:18:52.699Z,959.3900
2023-04-08T00:19:04.068Z,959.3300
2023-04-08T00:19:15.239Z,959.3300
2023-04-08T00:19:26.435Z,959.3300
2023-04-08T00:19:37.641Z,959.3900
2023-04-08T00:19:48.843Z,959.3300
2023-04-08T00:20:00.094Z,959.3700
2023-04-08T00:20:11.232Z,959.3300
2023-04-08T00:20:22.275Z,959.3500
2023-04-08T00:20:33.308Z,959.3300
2023-04-08T00:20:44.522Z,959.3500
2023-04-08T00:20:55.708Z,959.3500
2023-04-08T00:21:06.754Z,959.3500
2023-04-08T00:21:17.788Z,959.3700
2023-04-08T00:21:28.856Z,959.3500
2023-04-08T00:21:39.885Z,959.3500
2023-04-08T00:21:50.914Z,959.3500
2023-04-08T00:22:01.980Z,959.3900
2023-04-08T00:22:13.153Z,959.3900
2023-04-08T00:22:24.347Z,959.3900
2023-04-08T00:22:35.367Z,959.3900
2023-04-08T00:22:46.431Z,959.3900
2023-04-08T00:22:57.638Z,959.4100
2023-04-08T00:23:08.841Z,959.3900
2023-04-08T00:23:20.045Z,959.4100
2023-04-08T00:23:31.233Z,959.3900
2023-04-08T00:23:42.293Z,959.3900
2023-04-08T00:23:53.361Z,959.3900
2023-04-08T00:24:04.536Z,959.3900
2023-04-08T00:24:15.713Z,959.3900
2023-04-08T00:24:26.918Z,959.3900
2023-04-08T00:24:37.979Z,959.3900
2023-04-08T00:24:49.004Z,959.3900
2023-04-08T00:25:00.208Z,959.3900
2023-04-08T00:25:11.395Z,959.3900
2023-04-08T00:25:25.257Z,959.4100
2023-04-08T00:25:36.647Z,959.3500
2023-04-08T00:25:47.688Z,959.3500
2023-04-08T00:25:58.754Z,959.4100
2023-04-08T00:26:09.960Z,959.4100
2023-04-08T00:26:21.017Z,959.4100
2023-04-08T00:26:32.046Z,959.3900
2023-04-08T00:26:43.116Z,959.3900
2023-04-08T00:26:54.168Z,959.3900
2023-04-08T00:27:05.344Z,959.3900
2023-04-08T00:27:16.522Z,959.3900
2023-04-08T00:27:27.578Z,959.3900
2023-04-08T00:27:38.612Z,959.3900
2023-04-08T00:27:49.797Z,959.3900
2023-04-08T00:28:00.918Z,959.4100
2023-04-08T00:28:11.999Z,959.3900
2023-04-08T00:28:23.095Z,959.3900
2023-04-08T00:28:34.133Z,959.4100
2023-04-08T00:28:45.169Z,959.3900
2023-04-08T00:28:56.381Z,959.3700
2023-04-08T00:29:07.553Z,959.3900
2023-04-08T00:29:18.781Z,959.3900
2023-04-08T00:29:29.968Z,959.3900
2023-04-08T00:29:41.165Z,959.3900
2023-04-08T00:29:52.356Z,959.3900
2023-04-08T00:30:03.615Z,959.3900
2023-04-08T00:30:14.758Z,959.4100
2023-04-08T00:30:25.955Z,959.4100
2023-04-08T00:30:37.026Z,959.4100
2023-04-08T00:30:48.098Z,959.4100
2023-04-08T00:30:59.260Z,959.3500
2023-04-08T00:31:10.453Z,959.3500
2023-04-08T00:31:21.878Z,959.3500
2023-04-08T00:31:33.171Z,959.3700
2023-04-08T00:31:44.287Z,959.3700
2023-04-08T00:31:55.388Z,959.3700
2023-04-08T00:32:06.488Z,959.3500
2023-04-08T00:32:17.515Z,959.3700
2023-04-08T00:32:28.595Z,959.4100
2023-04-08T00:32:39.866Z,959.4100
2023-04-08T00:32:51.019Z,959.4100
2023-04-08T00:33:02.167Z,959.4100
2023-04-08T00:33:13.376Z,959.3900
2023-04-08T00:33:24.509Z,959.4100
2023-04-08T00:33:35.712Z,959.4100
2023-04-08T00:33:46.915Z,959.3900
2023-04-08T00:33:58.118Z,959.3900
2023-04-08T00:34:09.182Z,959.3900
2023-04-08T00:34:20.218Z,959.3900
2023-04-08T00:34:31.389Z,959.3900
2023-04-08T00:34:42.596Z,959.3900
2023-04-08T00:34:53.792Z,959.3900
2023-04-08T00:35:05.019Z,959.3900
2023-04-08T00:35:16.295Z,959.4100
2023-04-08T00:35:27.419Z,959.3900
2023-04-08T00:35:38.682Z,959.3900
2023-04-08T00:35:49.831Z,959.3900
2023-04-08T00:36:00.900Z,959.3700
2023-04-08T00:36:11.959Z,959.3700
2023-04-08T00:36:23.098Z,959.3700
2023-04-08T00:36:34.274Z,959.3700
2023-04-08T00:36:45.508Z,959.3700
2023-04-08T00:36:56.683Z,959.3700
2023-04-08T00:37:07.909Z,959.3700
2023-04-08T00:37:19.098Z,959.3700
2023-04-08T00:37:30.283Z,959.3500
2023-04-08T00:37:41.484Z,959.3500
2023-04-08T00:37:52.692Z,959.3500
2023-04-08T00:38:03.735Z,959.3500
2023-04-08T00:38:14.762Z,959.3500
2023-04-08T00:38:25.951Z,959.3500
2023-04-08T00:38:37.156Z,959.3500
2023-04-08T00:38:48.538Z,959.3500
2023-04-08T00:38:59.669Z,959.3500
2023-04-08T00:39:10.718Z,959.3500
2023-04-08T00:39:21.738Z,959.3500
2023-04-08T00:39:32.834Z,959.3500
2023-04-08T00:39:44.034Z,959.3500
2023-04-08T00:39:55.260Z,959.3500
2023-04-08T00:40:06.432Z,959.3500
2023-04-08T00:40:17.667Z,959.3500
2023-04-08T00:40:28.860Z,959.3500
2023-04-08T00:40:40.034Z,959.3500
2023-04-08T00:40:51.231Z,959.3500
2023-04-08T00:41:02.459Z,959.3500
2023-04-08T00:41:13.475Z,959.3500
2023-04-08T00:41:24.535Z,959.3500
2023-04-08T00:41:35.715Z,959.3300
2023-04-08T00:41:46.928Z,959.3500
2023-04-08T00:41:58.119Z,959.3500
2023-04-08T00:42:09.350Z,959.3500
2023-04-08T00:42:20.517Z,959.3500
2023-04-08T00:42:31.715Z,959.3500
2023-04-08T00:42:42.908Z,959.3700
2023-04-08T00:42:54.114Z,959.3700
2023-04-08T00:43:05.323Z,959.3500
2023-04-08T00:43:16.348Z,959.3500
2023-04-08T00:43:27.387Z,959.3500
2023-04-08T00:43:38.596Z,959.3500
2023-04-08T00:43:49.793Z,959.3700
2023-04-08T00:44:01.011Z,959.3500
2023-04-08T00:44:12.192Z,959.3500
2023-04-08T00:44:23.221Z,959.3700
2023-04-08T00:44:34.357Z,959.3700
2023-04-08T00:44:45.474Z,959.3500
2023-04-08T00:44:56.675Z,959.3500
2023-04-08T00:45:07.874Z,959.3500
2023-04-08T00:45:19.079Z,959.3700
2023-04-08T00:45:30.297Z,959.3700
2023-04-08T00:45:41.490Z,959.3700
2023-04-08T00:45:52.708Z,959.3500
2023-04-08T00:46:03.964Z,959.3500
2023-04-08T00:46:15.049Z,959.3700
2023-04-08T00:46:26.152Z,959.3700
2023-04-08T00:46:37.307Z,959.3700
2023-04-08T00:46:48.403Z,959.3700
2023-04-08T00:46:59.466Z,959.3700
2023-04-08T00:47:10.561Z,959.3700
2023-04-08T00:47:21.697Z,959.3700
2023-04-08T00:47:32.780Z,959.3700
2023-04-08T00:47:44.006Z,959.3700
2023-04-08T00:47:55.287Z,959.3700
2023-04-08T00:48:06.436Z,959.3900
2023-04-08T00:48:17.660Z,959.3900
2023-04-08T00:48:28.857Z,959.3900
2023-04-08T00:48:40.057Z,959.3900
2023-04-08T00:48:51.468Z,959.4100
2023-04-08T00:49:02.804Z,959.4100
2023-04-08T00:49:13.863Z,959.4100
2023-04-08T00:49:24.913Z,959.4100
2023-04-08T00:49:36.035Z,959.3900
2023-04-08T00:49:47.233Z,959.4100
2023-04-08T00:49:58.287Z,959.4100
2023-04-08T00:50:09.307Z,959.4200
2023-04-08T00:50:20.589Z,959.4100
2023-04-08T00:50:31.714Z,959.4200
2023-04-08T00:50:42.912Z,959.4200
2023-04-08T00:50:54.129Z,959.3500
2023-04-08T00:51:05.314Z,959.4100
2023-04-08T00:51:16.507Z,959.4100
2023-04-08T00:51:27.714Z,959.4100
2023-04-08T00:51:38.971Z,959.4200
2023-04-08T00:51:50.116Z,959.4100
2023-04-08T00:52:01.148Z,959.4100
2023-04-08T00:52:12.205Z,959.3900
2023-04-08T00:52:23.414Z,959.3900
2023-04-08T00:52:34.597Z,959.3900
2023-04-08T00:52:45.832Z,959.4100
2023-04-08T00:52:57.014Z,959.3900
2023-04-08T00:53:08.216Z,959.3900
2023-04-08T00:53:19.338Z,959.3900
2023-04-08T00:53:30.369Z,959.3900
2023-04-08T00:53:41.410Z,959.3900
2023-04-08T00:53:52.455Z,959.3900
2023-04-08T00:54:03.564Z,959.3900
2023-04-08T00:54:14.764Z,959.3900
2023-04-08T00:54:25.963Z,959.3900
2023-04-08T00:54:37.026Z,959.3900
2023-04-08T00:54:48.044Z,959.3700
2023-04-08T00:54:59.243Z,959.3900
2023-04-08T00:55:10.445Z,959.3900
2023-04-08T00:55:21.643Z,959.3900
2023-04-08T00:55:32.833Z,959.3900
2023-04-08T00:55:44.078Z,959.3300
2023-04-08T00:55:55.233Z,959.3300
2023-04-08T00:56:06.436Z,959.3700
2023-04-08T00:56:17.643Z,959.3700
2023-04-08T00:56:28.833Z,959.3100
2023-04-08T00:56:40.044Z,959.3500
2023-04-08T00:56:51.236Z,959.2900
2023-04-08T00:57:02.453Z,959.2900
2023-04-08T00:57:13.633Z,959.2900
2023-04-08T00:57:24.877Z,959.2900
2023-04-08T00:57:36.033Z,959.2900
2023-04-08T00:57:47.234Z,959.2900
2023-04-08T00:57:58.438Z,959.2900
2023-04-08T00:58:09.642Z,959.2700
2023-04-08T00:58:20.828Z,959.2700
2023-04-08T00:58:32.055Z,959.2700
2023-04-08T00:58:43.265Z,959.2700
2023-04-08T00:58:54.455Z,959.2900
2023-04-08T00:59:05.626Z,959.2700
2023-04-08T00:59:16.833Z,959.2700
2023-04-08T00:59:28.055Z,959.2700
2023-04-08T00:59:39.233Z,959.2700
2023-04-08T00:59:50.285Z,959.2700
2023-04-08T01:00:01.345Z,959.2500
2023-04-08T01:00:12.511Z,959.2500
2023-04-08T01:00:23.732Z,959.2500
2023-04-08T01:00:34.914Z,959.2500
2023-04-08T01:00:46.130Z,959.2500
2023-04-08T01:00:57.315Z,959.2300
2023-04-08T01:01:08.521Z,959.2500
2023-04-08T01:01:19.757Z,959.2500
2023-04-08T01:01:30.966Z,959.2500
2023-04-08T01:01:42.176Z,959.2300
2023-04-08T01:01:53.311Z,959.2300
2023-04-08T01:02:04.640Z,959.2300
2023-04-08T01:02:15.912Z,959.2300
2023-04-08T01:02:27.500Z,959.2300
2023-04-08T01:02:38.910Z,959.2300
2023-04-08T01:02:50.175Z,959.2300
2023-04-08T01:03:01.743Z,959.2300
2023-04-08T01:03:13.094Z,959.2300
2023-04-08T01:03:24.290Z,959.2300
2023-04-08T01:03:35.529Z,959.2500
2023-04-08T01:03:46.757Z,959.2300
2023-04-08T01:03:58.270Z,959.2300
2023-04-08T01:04:09.486Z,959.2300
2023-04-08T01:04:20.681Z,959.2300
2023-04-08T01:04:31.900Z,959.2300
2023-04-08T01:04:42.999Z,959.2300
2023-04-08T01:04:54.113Z,959.2100
2023-04-08T01:05:05.313Z,959.2100
2023-04-08T01:05:16.515Z,959.2100
2023-04-08T01:05:27.726Z,959.2300
2023-04-08T01:05:38.814Z,959.2100
2023-04-08T01:05:49.881Z,959.2100
2023-04-08T01:06:01.003Z,959.2100
2023-04-08T01:06:12.035Z,959.2100
2023-04-08T01:06:23.077Z,959.1900
2023-04-08T01:06:34.267Z,959.2100
2023-04-08T01:06:45.316Z,959.1900
2023-04-08T01:06:56.373Z,959.1900
2023-04-08T01:07:07.555Z,959.1900
2023-04-08T01:07:18.776Z,959.1900
2023-04-08T01:07:29.958Z,959.1900
2023-04-08T01:07:41.207Z,959.1900
2023-04-08T01:07:52.249Z,959.1900
2023-04-08T01:08:03.292Z,959.1900
2023-04-08T01:08:14.434Z,959.1900
2023-04-08T01:08:25.635Z,959.1900
2023-04-08T01:08:36.686Z,959.1900
2023-04-08T01:08:47.853Z,959.1900
2023-04-08T01:08:59.274Z,959.1900
2023-04-08T01:09:10.428Z,959.1900
2023-04-08T01:09:21.651Z,959.1900
2023-04-08T01:09:32.835Z,959.2100
2023-04-08T01:09:44.039Z,959.2100
2023-04-08T01:09:55.073Z,959.2100
2023-04-08T01:10:06.121Z,959.2100
2023-04-08T01:10:17.319Z,959.1900
2023-04-08T01:10:28.533Z,959.1900
2023-04-08T01:10:39.735Z,959.2100
2023-04-08T01:10:50.923Z,959.2100
2023-04-08T01:11:02.000Z,959.1900
2023-04-08T01:11:13.042Z,959.2100
2023-04-08T01:11:24.196Z,959.2300
2023-04-08T01:11:35.401Z,959.2300
2023-04-08T01:11:46.601Z,959.2300
2023-04-08T01:11:57.675Z,959.2300
2023-04-08T01:12:08.726Z,959.2300
2023-04-08T01:12:19.879Z,959.2300
2023-04-08T01:12:31.077Z,959.2300
2023-04-08T01:12:42.315Z,959.2100
2023-04-08T01:12:53.508Z,959.2300
2023-04-08T01:13:04.676Z,959.2300
2023-04-08T01:13:15.875Z,959.2300
2023-04-08T01:13:27.074Z,959.2300
2023-04-08T01:13:38.276Z,959.2300
2023-04-08T01:13:49.487Z,959.2500
2023-04-08T01:14:00.678Z,959.2300
2023-04-08T01:14:11.876Z,959.2500
2023-04-08T01:14:23.109Z,959.2500
2023-04-08T01:14:34.173Z,959.2500
2023-04-08T01:14:45.214Z,959.2500
2023-04-08T01:14:56.354Z,959.2500
2023-04-08T01:15:07.566Z,959.2500
2023-04-08T01:15:18.768Z,959.2500
2023-04-08T01:15:30.009Z,959.2500
2023-04-08T01:15:41.236Z,959.2300
2023-04-08T01:15:52.398Z,959.2500
2023-04-08T01:16:03.611Z,959.2300
2023-04-08T01:16:14.762Z,959.2300
2023-04-08T01:16:25.993Z,959.2900
2023-04-08T01:16:37.168Z,959.2300
2023-04-08T01:16:48.200Z,959.2900
2023-04-08T01:16:59.232Z,959.2900
2023-04-08T01:17:10.437Z,959.2700
2023-04-08T01:17:21.476Z,959.2700
2023-04-08T01:17:32.577Z,959.2700
2023-04-08T01:17:43.755Z,959.2700
2023-04-08T01:17:54.974Z,959.2700
2023-04-08T01:18:06.171Z,959.2900
2023-04-08T01:18:17.334Z,959.2900
2023-04-08T01:18:28.519Z,959.2100
2023-04-08T01:18:39.730Z,959.2700
2023-04-08T01:18:51.184Z,959.2900
2023-04-08T01:19:02.503Z,959.2700
2023-04-08T01:19:13.629Z,959.2100
2023-04-08T01:19:24.834Z,959.2300
2023-04-08T01:19:36.060Z,959.2100
2023-04-08T01:19:47.248Z,959.2100
2023-04-08T01:19:58.433Z,959.2100
2023-04-08T01:20:09.560Z,959.2300
2023-04-08T01:20:20.585Z,959.2300
2023-04-08T01:20:31.721Z,959.2300
2023-04-08T01:20:42.921Z,959.2300
2023-04-08T01:20:53.967Z,959.2300
2023-04-08T01:21:04.999Z,959.2300
2023-04-08T01:21:16.202Z,959.2300
2023-04-08T01:21:27.251Z,959.2300
2023-04-08T01:21:38.275Z,959.2300
2023-04-08T01:21:49.499Z,959.2500
2023-04-08T01:22:00.681Z,959.2300
2023-04-08T01:22:11.877Z,959.2300
2023-04-08T01:22:23.101Z,959.2500
2023-04-08T01:22:34.276Z,959.2300
2023-04-08T01:22:45.518Z,959.2300
2023-04-08T01:22:56.678Z,959.2500
2023-04-08T01:23:07.888Z,959.2500
2023-04-08T01:23:19.078Z,959.2500
2023-04-08T01:23:30.123Z,959.2300
2023-04-08T01:23:41.178Z,959.2500
2023-04-08T01:23:52.358Z,959.2500
2023-04-08T01:24:03.566Z,959.2300
2023-04-08T01:24:14.755Z,959.2300
2023-04-08T01:24:25.982Z,959.2300
2023-04-08T01:24:37.023Z,959.2300
2023-04-08T01:24:48.058Z,959.2300
2023-04-08T01:24:59.235Z,959.2100
2023-04-08T01:25:10.432Z,959.2300
2023-04-08T01:25:21.644Z,959.2300
2023-04-08T01:25:32.835Z,959.2300
2023-04-08T01:25:44.042Z,959.2300
2023-04-08T01:25:55.231Z,959.2300
2023-04-08T01:26:06.471Z,959.2300
2023-04-08T01:26:17.656Z,959.2300
2023-04-08T01:26:28.841Z,959.2300
2023-04-08T01:26:39.900Z,959.2300
2023-04-08T01:26:50.924Z,959.2300
2023-04-08T01:27:02.123Z,959.2300
2023-04-08T01:27:13.309Z,959.2300
2023-04-08T01:27:24.514Z,959.2300
2023-04-08T01:27:35.720Z,959.2300
2023-04-08T01:27:46.941Z,959.2300
2023-04-08T01:27:58.120Z,959.2300
2023-04-08T01:28:16.711Z,959.2300
2023-04-08T01:28:27.868Z,959.2100
2023-04-08T01:28:38.909Z,959.2300
2023-04-08T01:28:50.129Z,959.2300
2023-04-08T01:29:01.532Z,959.2500
2023-04-08T01:29:12.668Z,959.2500
2023-04-08T01:29:23.723Z,959.2500
2023-04-08T01:29:34.756Z,959.2300
2023-04-08T01:29:45.964Z,959.2500
2023-04-08T01:29:57.158Z,959.2300
2023-04-08T01:30:08.376Z,959.2500
2023-04-08T01:30:19.568Z,959.2700
2023-04-08T01:30:30.779Z,959.2500
2023-04-08T01:30:41.971Z,959.2700
2023-04-08T01:30:53.219Z,959.2700
2023-04-08T01:31:04.414Z,959.2500
2023-04-08T01:31:15.617Z,959.2500
2023-04-08T01:31:26.698Z,959.2500
2023-04-08T01:31:37.975Z,959.2500
2023-04-08T01:31:49.422Z,959.2500
2023-04-08T01:32:00.502Z,959.2500
2023-04-08T01:32:11.556Z,959.2500
2023-04-08T01:32:22.778Z,959.2500
2023-04-08T01:32:33.999Z,959.2500
2023-04-08T01:32:45.210Z,959.2700
2023-04-08T01:32:56.348Z,959.2500
2023-04-08T01:33:07.415Z,959.2700
2023-04-08T01:33:18.442Z,959.2700
2023-04-08T01:33:29.655Z,959.2700
2023-04-08T01:33:40.686Z,959.2700
2023-04-08T01:33:51.716Z,959.2500
2023-04-08T01:34:02.922Z,959.2700
2023-04-08T01:34:14.116Z,959.2500
2023-04-08T01:34:25.325Z,959.2700
2023-04-08T01:34:36.366Z,959.2700
2023-04-08T01:34:47.436Z,959.2500
2023-04-08T01:34:58.607Z,959.2700
2023-04-08T01:35:09.804Z,959.2700
2023-04-08T01:35:21.035Z,959.2700
2023-04-08T01:35:32.216Z,959.2700
2023-04-08T01:35:43.416Z,959.2700
2023-04-08T01:35:54.716Z,959.2700
2023-04-08T01:36:05.853Z,959.2700
2023-04-08T01:36:16.995Z,959.2700
2023-04-08T01:36:28.210Z,959.2700
2023-04-08T01:36:39.249Z,959.2700
2023-04-08T01:36:50.289Z,959.2700
2023-04-08T01:37:01.504Z,959.2900
2023-04-08T01:37:12.685Z,959.2700
2023-04-08T01:37:23.884Z,959.2700
2023-04-08T01:37:35.078Z,959.2700
2023-04-08T01:37:46.269Z,959.2700
2023-04-08T01:37:57.560Z,959.2700
2023-04-08T01:38:08.640Z,959.2700
2023-04-08T01:38:19.694Z,959.2700
2023-04-08T01:38:30.763Z,959.2700
2023-04-08T01:38:41.969Z,959.2500
2023-04-08T01:38:53.150Z,959.2700
2023-04-08T01:39:04.273Z,959.2700
2023-04-08T01:39:15.323Z,959.2500
2023-04-08T01:39:26.453Z,959.2700
2023-04-08T01:39:37.633Z,959.2500
2023-04-08T01:39:48.697Z,959.2500
2023-04-08T01:39:59.722Z,959.2500
2023-04-08T01:40:10.932Z,959.2500
2023-04-08T01:40:22.114Z,959.2500
2023-04-08T01:40:33.324Z,959.2700
2023-04-08T01:40:44.532Z,959.2500
2023-04-08T01:40:55.717Z,959.2700
2023-04-08T01:41:06.759Z,959.2700
2023-04-08T01:41:17.800Z,959.2500
2023-04-08T01:41:28.993Z,959.2500
2023-04-08T01:41:40.201Z,959.2500
2023-04-08T01:41:51.408Z,959.2500
2023-04-08T01:42:02.608Z,959.2300
2023-04-08T01:42:13.802Z,959.2500
2023-04-08T01:42:25.007Z,959.2300
2023-04-08T01:42:36.190Z,959.2500
2023-04-08T01:42:47.397Z,959.2500
2023-04-08T01:42:58.477Z,959.2500
2023-04-08T01:43:09.517Z,959.2500
2023-04-08T01:43:20.679Z,959.2500
2023-04-08T01:43:31.922Z,959.2300
2023-04-08T01:43:43.081Z,959.2300
2023-04-08T01:43:54.158Z,959.2300
2023-04-08T01:44:05.213Z,959.2300
2023-04-08T01:44:16.357Z,959.2300
2023-04-08T01:44:27.552Z,959.2300
2023-04-08T01:44:38.765Z,959.2500
2023-04-08T01:44:49.964Z,959.2300
2023-04-08T01:45:01.177Z,959.2300
2023-04-08T01:45:12.352Z,959.2300
2023-04-08T01:45:23.561Z,959.2300
2023-04-08T01:45:34.763Z,959.2300
2023-04-08T01:45:45.959Z,959.2300
2023-04-08T01:45:57.152Z,959.2300
2023-04-08T01:46:08.254Z,959.2300
2023-04-08T01:46:19.353Z,959.2100
2023-04-08T01:46:30.595Z,959.2300
2023-04-08T01:46:41.682Z,959.2300
2023-04-08T01:46:52.903Z,959.2300
2023-04-08T01:47:04.115Z,959.2300
2023-04-08T01:47:15.237Z,959.2300
2023-04-08T01:47:26.470Z,959.2300
2023-04-08T01:47:37.705Z,959.2300
2023-04-08T01:47:48.866Z,959.1900
2023-04-08T01:48:00.173Z,959.2300
2023-04-08T01:48:11.321Z,959.2300
2023-04-08T01:48:22.447Z,959.2300
2023-04-08T01:48:33.647Z,959.2300
2023-04-08T01:48:44.840Z,959.2300
2023-04-08T01:48:56.048Z,959.2100
2023-04-08T01:49:07.086Z,959.2100
2023-04-08T01:49:18.119Z,959.2100
2023-04-08T01:49:29.323Z,959.2100
2023-04-08T01:49:40.537Z,959.2100
2023-04-08T01:49:51.719Z,959.2100
2023-04-08T01:50:02.920Z,959.2100
2023-04-08T01:50:13.970Z,959.1900
2023-04-08T01:50:24.999Z,959.1900
2023-04-08T01:50:36.199Z,959.2100
2023-04-08T01:50:47.411Z,959.2100
2023-04-08T01:50:58.599Z,959.1900
2023-04-08T01:51:09.823Z,959.1900
2023-04-08T01:51:20.948Z,959.1900
2023-04-08T01:51:31.981Z,959.1900
2023-04-08T01:51:43.086Z,959.1900
2023-04-08T01:51:54.273Z,959.1900
2023-04-08T01:52:05.329Z,959.1900
2023-04-08T01:52:16.359Z,959.1900
2023-04-08T01:52:27.401Z,959.1900
2023-04-08T01:52:38.458Z,959.2100
2023-04-08T01:52:49.647Z,959.2100
2023-04-08T01:53:00.873Z,959.2100
2023-04-08T01:53:12.039Z,959.2100
2023-04-08T01:53:23.267Z,959.2300
2023-04-08T01:53:34.295Z,959.2300
2023-04-08T01:53:45.326Z,959.2300
2023-04-08T01:53:56.542Z,959.2100
2023-04-08T01:54:07.728Z,959.2100
2023-04-08T01:54:18.918Z,959.2100
2023-04-08T01:54:30.148Z,959.2300
2023-04-08T01:54:41.154Z,959.2500
2023-04-08T01:54:52.210Z,959.2300
2023-04-08T01:55:03.409Z,959.2300
2023-04-08T01:55:14.613Z,959.2300
2023-04-08T01:55:25.683Z,959.2300
2023-04-08T01:55:36.730Z,959.2300
2023-04-08T01:55:47.881Z,959.2500
2023-04-08T01:55:59.090Z,959.2500
2023-04-08T01:56:10.292Z,959.2500
2023-04-08T01:56:21.475Z,959.2500
2023-04-08T01:56:32.684Z,959.2500
2023-04-08T01:56:43.882Z,959.2300
2023-04-08T01:56:55.079Z,959.2500
2023-04-08T01:57:06.272Z,959.2300
2023-04-08T01:57:17.485Z,959.2300
2023-04-08T01:57:28.552Z,959.2500
2023-04-08T01:57:39.617Z,959.2300
2023-04-08T01:57:50.759Z,959.2300
2023-04-08T01:58:02.009Z,959.2500
2023-04-08T01:58:13.159Z,959.2500
2023-04-08T01:58:24.359Z,959.2500
2023-04-08T01:58:35.556Z,959.2500
2023-04-08T01:58:46.762Z,959.2500
2023-04-08T01:58:57.808Z,959.2700
2023-04-08T01:59:08.857Z,959.2700
2023-04-08T01:59:20.087Z,959.2500
2023-04-08T01:59:31.240Z,959.2500
2023-04-08T01:59:42.468Z,959.2500
2023-04-08T01:59:53.648Z,959.2500
2023-04-08T02:00:04.835Z,959.2500
2023-04-08T02:00:16.039Z,959.2700
2023-04-08T02:00:27.243Z,959.2500
2023-04-08T02:00:38.327Z,959.2500
2023-04-08T02:00:49.377Z,959.2500
2023-04-08T02:01:00.527Z,959.2700
2023-04-08T02:01:11.715Z,959.2700
2023-04-08T02:01:23.006Z,959.2700
2023-04-08T02:01:34.176Z,959.2700
2023-04-08T02:01:45.493Z,959.2700
2023-04-08T02:01:56.705Z,959.2500
2023-04-08T02:02:07.976Z,959.2500
2023-04-08T02:02:19.291Z,959.2300
2023-04-08T02:02:30.663Z,959.2300
2023-04-08T02:02:42.361Z,959.2500
2023-04-08T02:02:53.738Z,959.2500
2023-04-08T02:03:05.368Z,959.2500
2023-04-08T02:03:17.375Z,959.2500
2023-04-08T02:03:29.054Z,959.2500
2023-04-08T02:03:40.626Z,959.2500
2023-04-08T02:03:51.755Z,959.2500
2023-04-08T02:04:03.156Z,959.2500
2023-04-08T02:04:14.520Z,959.2500
2023-04-08T02:04:25.759Z,959.2300
2023-04-08T02:04:37.009Z,959.2500
2023-04-08T02:04:48.477Z,959.2500
2023-04-08T02:04:59.610Z,959.2300
2023-04-08T02:05:10.656Z,959.2300
2023-04-08T02:05:21.773Z,959.2300
2023-04-08T02:05:32.842Z,959.2500
2023-04-08T02:05:44.036Z,959.2300
2023-04-08T02:05:55.256Z,959.2300
2023-04-08T02:06:06.458Z,959.2300
2023-04-08T02:06:17.648Z,959.2300
2023-04-08T02:06:28.834Z,959.2300
2023-04-08T02:06:40.040Z,959.2300
2023-04-08T02:06:51.239Z,959.2300
2023-04-08T02:07:02.440Z,959.2300
2023-04-08T02:07:13.529Z,959.2300
2023-04-08T02:07:24.613Z,959.2300
2023-04-08T02:07:35.729Z,959.2300
2023-04-08T02:07:46.945Z,959.2100
2023-04-08T02:07:58.127Z,959.2300
2023-04-08T02:08:09.365Z,959.2300
2023-04-08T02:08:20.394Z,959.2300
2023-04-08T02:08:31.470Z,959.2300
2023-04-08T02:08:42.642Z,959.2300
2023-04-08T02:08:53.691Z,959.2100
2023-04-08T02:09:04.739Z,959.2100
2023-04-08T02:09:15.880Z,959.2100
2023-04-08T02:09:26.923Z,959.2100
2023-04-08T02:09:37.979Z,959.2100
2023-04-08T02:09:49.040Z,959.2100
2023-04-08T02:10:00.136Z,959.2100
2023-04-08T02:10:11.235Z,959.2100
2023-04-08T02:10:22.440Z,959.2100
2023-04-08T02:10:33.497Z,959.2100
2023-04-08T02:10:44.528Z,959.2100
2023-04-08T02:10:55.722Z,959.2100
2023-04-08T02:11:06.759Z,959.2100
2023-04-08T02:11:17.801Z,959.2300